Wausau Downtown Airport
KAUW : now visible

Airfield :











YOU CAN JOIN US ON...

 
LOGIN :

Register | Disclaimer

   EN    FR    IT 

 









Legend :    VFR   Marginal VFR   IFR   Intensive IFR   Very Intensive IFR
Visi :
Ceiling :
>= 8 km
>= 3000ft
5 to 8 km
1000 to 3000 ft
1500m to 5 km
500 to 1000 ft
800 to 1500m
200 to 500 ft
< 800m
< 200 ft
Symbols :   Thunderstorms  Fog  Heavy snow  Heavy precipitations  Wind > 20 kt






- Airport Elevation : 1201 ft


KAUW - Wausau Downtown

CURRENT METAR :
  • 082154Z AUTO 25003KT 10SM CLR M07/M14 A2999 RMK AO2 SLP183 T10721144

EXPIRED METARs :
  • 082054Z AUTO 00000KT 10SM CLR M07/M13 A2994 RMK AO2 SLP167 T10671128 55005
  • 081954Z AUTO 27004KT 10SM CLR M07/M13 A2994 RMK AO2 SLP166 T10721133

TAF KAUW
Valid from the 08 at 18:00 until the 09 at 18:00 UTC


081733Z 0818/0918 VRB04KT P6SM BKN250
FM090500 14007G15KT P6SM BKN100
FM091300 14010G18KT P6SM OVC080 WS018/18035KT
FM091400 14010G19KT P6SM -SN OVC040 WS018/18040KT
FM091500 14011G21KT 4SM -SN SCT012 OVC025 WS020/18040KT
FM091600 15011G21KT 1 1/2SM -SN SCT007 OVC012 WS020/18040KT
TEMPO 0916/0918 3/4SM -SN OVC007
KZMP FIR / North America



MET'MAP, your aeronautical weather chart ! - Copyright ORBIFLY December 2007 - Disclaimer

ORBIFLY MET'MAP TEAM :

Programming & Development : Alexandra Zaïnal
Concept & original design : Baudouin d'Aumeries
Assistance for programming : Marc-Olivier Méhu
Technical & hardware support : Manuel Goepfert

Contact : metmap@orbifly.com




SOURCES & CREDITS :

   NOAA       Earth
Advisory